Time;durP1;ratioP1;P1;durP2;ratioP2;P2;SDS_P1;SDS_P2;PMS_P1;PMS_P2;Temp;Humidity;BMP_temperature;BMP_pressure;BME280_temperature;BME280_humidity;BME280_pressure;Samples;Min_cycle;Max_cycle;Signal;HPM_P1;HPM_P2
2023/12/05 00:02:57;;;;;;;52.05;34.53;;;2.00;94.70;;;;;;6320369;28;20048;-76
2023/12/05 00:05:59;;;;;;;57.97;33.53;;;2.00;94.70;;;;;;6321426;28;20044;-76
2023/12/05 00:09:01;;;;;;;58.55;33.33;;;2.00;94.70;;;;;;6322179;28;20049;-77
2023/12/05 00:12:03;;;;;;;57.47;32.13;;;2.00;94.70;;;;;;6321638;28;20048;-77
2023/12/05 00:15:05;;;;;;;57.13;32.53;;;2.00;94.70;;;;;;6322231;28;20051;-76
2023/12/05 00:18:09;;;;;;;67.70;34.72;;;2.00;94.70;;;;;;6323021;28;20055;-77
2023/12/05 00:21:11;;;;;;;48.95;33.17;;;1.90;94.60;;;;;;6322769;28;20048;-77
2023/12/05 00:24:12;;;;;;;55.13;30.70;;;1.90;94.70;;;;;;6327088;28;20052;-76
2023/12/05 00:27:14;;;;;;;60.67;31.42;;;1.90;94.70;;;;;;6325975;28;20047;-77
2023/12/05 00:30:16;;;;;;;46.80;29.30;;;1.90;94.70;;;;;;6332322;28;20063;-75
2023/12/05 00:33:19;;;;;;;48.08;30.73;;;1.90;94.70;;;;;;6323768;28;20052;-77
2023/12/05 00:36:20;;;;;;;51.70;30.45;;;2.00;94.70;;;;;;6324677;28;20055;-77
2023/12/05 00:39:22;;;;;;;49.80;29.85;;;2.00;94.70;;;;;;6322774;28;20051;-77
2023/12/05 00:42:24;;;;;;;47.33;28.55;;;2.00;94.80;;;;;;6315994;28;20043;-77
2023/12/05 00:45:26;;;;;;;53.03;31.80;;;2.00;94.80;;;;;;6323355;28;20047;-75
2023/12/05 00:48:29;;;;;;;56.67;30.60;;;2.10;94.90;;;;;;6324204;28;20420;-76
2023/12/05 00:51:30;;;;;;;58.47;34.03;;;2.10;94.80;;;;;;6325006;28;20069;-77
2023/12/05 00:54:32;;;;;;;56.28;34.40;;;2.10;94.80;;;;;;6326494;28;20047;-77
2023/12/05 00:57:34;;;;;;;53.30;31.75;;;2.10;94.90;;;;;;6325339;28;20041;-76
2023/12/05 01:00:35;;;;;;;58.78;33.28;;;2.10;94.80;;;;;;6324243;28;20044;-76
2023/12/05 01:03:38;;;;;;;54.33;31.52;;;2.10;94.70;;;;;;6323430;28;20036;-76
2023/12/05 01:06:40;;;;;;;60.53;30.65;;;2.10;94.60;;;;;;6316238;28;20048;-76
2023/12/05 01:09:42;;;;;;;55.10;29.23;;;1.90;94.40;;;;;;6327393;28;20524;-75
2023/12/05 01:12:45;;;;;;;49.42;28.00;;;1.90;94.50;;;;;;6323420;28;20170;-76
2023/12/05 01:15:47;;;;;;;55.03;31.02;;;1.90;94.70;;;;;;6323455;28;20131;-77
2023/12/05 01:18:50;;;;;;;51.20;28.92;;;1.90;94.70;;;;;;6323782;28;20055;-76
2023/12/05 01:21:52;;;;;;;47.33;29.58;;;1.90;95.10;;;;;;6322419;28;20508;-76
2023/12/05 01:24:55;;;;;;;54.40;31.05;;;1.90;94.80;;;;;;6322778;28;20047;-76
2023/12/05 01:27:56;;;;;;;47.45;26.48;;;1.90;94.70;;;;;;6322717;28;20040;-76
2023/12/05 01:30:58;;;;;;;50.50;29.30;;;1.90;94.70;;;;;;6322447;28;20044;-75
2023/12/05 01:34:01;;;;;;;47.70;28.45;;;1.90;94.80;;;;;;6322515;28;20063;-76
2023/12/05 01:37:03;;;;;;;52.42;29.02;;;1.90;94.80;;;;;;6322761;28;20051;-76
2023/12/05 01:40:06;;;;;;;48.33;26.92;;;1.90;94.80;;;;;;6322634;28;20047;-76
2023/12/05 01:43:08;;;;;;;47.55;28.77;;;1.90;94.80;;;;;;6322117;28;20579;-76
2023/12/05 01:46:10;;;;;;;51.60;29.00;;;1.90;94.80;;;;;;6322905;28;20834;-76
2023/12/05 01:49:13;;;;;;;51.50;26.63;;;1.90;94.70;;;;;;6321960;28;20674;-76
2023/12/05 01:52:16;;;;;;;55.35;29.27;;;1.90;94.70;;;;;;6321752;28;20052;-77
2023/12/05 01:55:20;;;;;;;55.35;31.40;;;1.80;94.60;;;;;;6322179;28;20047;-76
2023/12/05 01:58:21;;;;;;;55.13;31.20;;;1.80;94.70;;;;;;6322567;28;20047;-77
2023/12/05 02:01:23;;;;;;;50.17;31.90;;;1.80;94.80;;;;;;6320899;28;20051;-76
2023/12/05 02:04:26;;;;;;;53.53;30.50;;;1.80;94.80;;;;;;6319791;28;20524;-76
2023/12/05 02:07:29;;;;;;;53.20;29.77;;;1.80;94.70;;;;;;6313705;28;20044;-76
2023/12/05 02:10:31;;;;;;;47.33;27.10;;;1.70;94.70;;;;;;6321906;28;20486;-76
2023/12/05 02:13:33;;;;;;;47.05;28.63;;;1.80;94.90;;;;;;6321410;28;20060;-76
2023/12/05 02:16:38;;;;;;;49.65;32.35;;;1.90;95.00;;;;;;6323547;28;20050;-76
2023/12/05 02:19:53;;;;;;;48.38;29.02;;;1.90;95.10;;;;;;6320808;28;20060;-77
2023/12/05 02:23:17;;;;;;;50.55;28.80;;;2.00;94.90;;;;;;6315176;28;20116;-76
2023/12/05 02:26:28;;;;;;;53.22;28.73;;;1.90;94.60;;;;;;6321882;28;20055;-76
2023/12/05 02:29:31;;;;;;;43.83;26.73;;;1.80;94.60;;;;;;6313002;28;20048;-76
2023/12/05 02:32:33;;;;;;;50.67;25.83;;;1.70;94.60;;;;;;6320629;28;20076;-76
2023/12/05 02:35:34;;;;;;;49.15;26.92;;;1.60;94.60;;;;;;6321128;28;20047;-77
2023/12/05 02:38:44;;;;;;;56.58;27.20;;;1.60;94.60;;;;;;6321046;28;20055;-76
2023/12/05 02:41:51;;;;;;;51.90;27.65;;;1.60;94.90;;;;;;6320752;28;20051;-77
2023/12/05 02:44:55;;;;;;;50.38;27.33;;;1.70;94.90;;;;;;6320931;28;20047;-76
2023/12/05 02:47:59;;;;;;;49.58;28.48;;;1.70;94.90;;;;;;6321064;28;20040;-76
2023/12/05 02:51:00;;;;;;;43.42;26.35;;;1.70;94.90;;;;;;6320270;28;20055;-76
2023/12/05 02:54:06;;;;;;;48.65;28.42;;;1.70;94.90;;;;;;6321085;28;20052;-76
2023/12/05 02:57:08;;;;;;;44.15;25.38;;;1.70;94.80;;;;;;6320112;28;20124;-76
2023/12/05 03:00:12;;;;;;;45.97;27.45;;;1.80;94.90;;;;;;6320375;28;20048;-76
2023/12/05 03:03:14;;;;;;;45.40;25.42;;;1.80;94.90;;;;;;6320666;28;20068;-76
2023/12/05 03:06:15;;;;;;;48.80;26.55;;;1.80;94.90;;;;;;6320861;28;20044;-77
2023/12/05 03:09:17;;;;;;;49.70;25.70;;;1.80;95.10;;;;;;6320093;28;20040;-76
2023/12/05 03:12:19;;;;;;;39.65;24.05;;;2.00;95.20;;;;;;6319944;28;20466;-76
2023/12/05 03:15:22;;;;;;;32.75;22.83;;;2.00;95.20;;;;;;6319985;28;20036;-76
2023/12/05 03:18:25;;;;;;;29.05;18.17;;;2.10;95.20;;;;;;6320668;28;20197;-76
2023/12/05 03:21:26;;;;;;;40.72;21.05;;;2.20;95.30;;;;;;6319634;28;20047;-76
2023/12/05 03:24:28;;;;;;;44.85;26.13;;;2.40;95.40;;;;;;6321560;28;20044;-76
2023/12/05 03:27:30;;;;;;;29.80;16.83;;;2.50;95.40;;;;;;6319749;28;20044;-76
2023/12/05 03:30:33;;;;;;;31.08;18.65;;;2.60;95.30;;;;;;6319420;28;20428;-77
2023/12/05 03:33:37;;;;;;;38.03;19.15;;;2.80;95.50;;;;;;6311703;28;20048;-77
2023/12/05 03:36:38;;;;;;;22.23;11.25;;;3.00;95.60;;;;;;6319774;28;20047;-77
2023/12/05 03:39:40;;;;;;;21.15;11.98;;;3.10;95.50;;;;;;6311334;28;20047;-76
2023/12/05 03:42:42;;;;;;;13.80;7.13;;;3.30;95.60;;;;;;6321365;28;20520;-76
2023/12/05 03:45:45;;;;;;;12.82;6.32;;;3.50;95.70;;;;;;6319215;28;20504;-76
2023/12/05 03:48:46;;;;;;;4.35;2.83;;;3.80;95.90;;;;;;6318918;28;20063;-76
2023/12/05 03:51:48;;;;;;;9.63;4.30;;;4.00;95.80;;;;;;6319322;28;20040;-76
2023/12/05 03:54:50;;;;;;;3.78;2.35;;;4.30;96.00;;;;;;6318286;28;20052;-76
2023/12/05 03:57:51;;;;;;;4.43;3.20;;;4.50;95.90;;;;;;6318970;28;20040;-76
2023/12/05 04:00:54;;;;;;;4.15;2.80;;;4.60;95.80;;;;;;6319130;28;20082;-77
2023/12/05 04:03:56;;;;;;;5.55;3.40;;;4.80;95.70;;;;;;6319483;28;20040;-77
2023/12/05 04:06:58;;;;;;;6.32;3.90;;;4.80;95.60;;;;;;6318722;28;20055;-76
2023/12/05 04:09:59;;;;;;;5.43;3.25;;;4.90;95.60;;;;;;6319584;28;20051;-77
2023/12/05 04:13:01;;;;;;;5.00;2.65;;;5.00;95.60;;;;;;6319062;28;20051;-77
2023/12/05 04:16:06;;;;;;;2.20;1.80;;;5.00;95.60;;;;;;6319357;28;20041;-76
2023/12/05 04:19:08;;;;;;;3.92;2.25;;;5.10;95.60;;;;;;6319228;28;20178;-77
2023/12/05 04:22:09;;;;;;;4.30;1.70;;;5.20;95.70;;;;;;6319706;28;20052;-77
2023/12/05 04:25:11;;;;;;;5.70;1.80;;;5.40;95.70;;;;;;6318566;28;20069;-77
2023/12/05 04:28:13;;;;;;;1.65;1.50;;;5.40;95.70;;;;;;6318823;28;20051;-76
2023/12/05 04:31:16;;;;;;;4.78;1.38;;;5.50;95.70;;;;;;6319135;28;20051;-77
2023/12/05 04:34:18;;;;;;;3.63;2.00;;;5.60;95.70;;;;;;6319338;28;20048;-78
2023/12/05 04:37:20;;;;;;;4.43;1.85;;;5.70;95.70;;;;;;6319290;28;20157;-78
2023/12/05 04:40:21;;;;;;;6.68;1.67;;;5.60;95.50;;;;;;6318500;28;20051;-78
2023/12/05 04:43:23;;;;;;;2.60;1.55;;;5.70;95.60;;;;;;6318400;28;20446;-77
2023/12/05 04:46:26;;;;;;;2.65;1.95;;;5.80;95.70;;;;;;6319473;28;20040;-78
2023/12/05 04:49:28;;;;;;;3.67;1.80;;;5.80;95.60;;;;;;6318888;28;20048;-78
2023/12/05 04:52:30;;;;;;;1.60;1.40;;;5.90;95.60;;;;;;6318693;28;20060;-77
2023/12/05 04:55:31;;;;;;;2.88;1.88;;;5.90;95.60;;;;;;6319068;28;20067;-77
2023/12/05 04:58:33;;;;;;;1.58;1.27;;;5.90;95.50;;;;;;6319173;28;20424;-77
2023/12/05 05:01:36;;;;;;;2.40;1.25;;;6.00;95.50;;;;;;6317755;28;20044;-77
2023/12/05 05:04:38;;;;;;;6.05;1.52;;;6.00;95.60;;;;;;6318874;28;20040;-77
2023/12/05 05:07:39;;;;;;;2.58;1.02;;;6.00;95.60;;;;;;6318726;28;20044;-77
2023/12/05 05:10:41;;;;;;;2.42;1.40;;;6.10;95.60;;;;;;6323671;28;20052;-77
2023/12/05 05:13:43;;;;;;;3.33;1.75;;;6.20;95.60;;;;;;6322980;28;20420;-77
2023/12/05 05:16:46;;;;;;;3.60;1.58;;;6.20;95.50;;;;;;6323097;28;20050;-78
2023/12/05 05:19:47;;;;;;;3.80;1.30;;;6.20;95.60;;;;;;6322265;28;20043;-78
2023/12/05 05:22:50;;;;;;;2.72;0.80;;;6.30;95.60;;;;;;6323227;28;20568;-77
2023/12/05 05:25:51;;;;;;;5.30;1.75;;;6.40;95.70;;;;;;6322355;28;20060;-77
2023/12/05 05:28:53;;;;;;;4.43;1.45;;;6.40;95.50;;;;;;6322550;28;20055;-77
2023/12/05 05:31:56;;;;;;;6.57;1.73;;;6.50;95.50;;;;;;6322373;28;20047;-77
2023/12/05 05:34:58;;;;;;;6.30;1.63;;;6.60;95.50;;;;;;6322821;28;20048;-77
2023/12/05 05:37:59;;;;;;;3.90;1.10;;;6.60;95.40;;;;;;6323548;28;20052;-75
2023/12/05 05:41:06;;;;;;;3.38;1.95;;;6.60;95.30;;;;;;6321310;28;20055;-75
2023/12/05 05:44:07;;;;;;;1.38;1.02;;;6.60;95.30;;;;;;6322707;28;20055;-76
2023/12/05 05:47:10;;;;;;;5.93;1.40;;;6.60;95.30;;;;;;6322049;28;20051;-76
2023/12/05 05:50:12;;;;;;;3.63;1.80;;;6.60;95.30;;;;;;6322303;28;20052;-76
2023/12/05 05:53:14;;;;;;;4.68;1.27;;;6.70;95.30;;;;;;6322316;28;20174;-76
2023/12/05 05:56:15;;;;;;;4.88;1.20;;;6.70;95.30;;;;;;6322133;28;20040;-75
2023/12/05 05:59:17;;;;;;;2.47;0.85;;;6.70;95.30;;;;;;6321923;28;20043;-76
2023/12/05 06:02:21;;;;;;;2.10;1.10;;;6.70;95.30;;;;;;6322525;28;20048;-76
2023/12/05 06:05:24;;;;;;;2.83;1.40;;;6.80;95.30;;;;;;6322312;28;20043;-76
2023/12/05 06:08:26;;;;;;;3.35;0.98;;;6.70;95.20;;;;;;6324053;28;20044;-77
2023/12/05 06:11:28;;;;;;;3.22;0.82;;;6.80;95.20;;;;;;6321798;28;20040;-77
2023/12/05 06:14:30;;;;;;;4.13;1.17;;;6.80;95.20;;;;;;6322235;28;20451;-77
2023/12/05 06:17:33;;;;;;;6.72;1.45;;;6.80;95.20;;;;;;6321555;28;20032;-77
2023/12/05 06:20:35;;;;;;;4.75;0.75;;;6.80;95.20;;;;;;6321469;28;20048;-76
2023/12/05 06:23:38;;;;;;;4.05;1.20;;;6.80;95.00;;;;;;6321499;28;20044;-76
2023/12/05 06:26:40;;;;;;;6.15;1.42;;;6.80;95.10;;;;;;6322128;28;20184;-74
2023/12/05 06:29:42;;;;;;;7.07;1.70;;;6.90;95.20;;;;;;6321432;28;20051;-78
2023/12/05 06:32:45;;;;;;;3.03;0.82;;;6.90;95.20;;;;;;6312859;28;20040;-77
2023/12/05 06:35:46;;;;;;;3.05;1.55;;;7.00;95.00;;;;;;6320444;28;20050;-76
2023/12/05 06:38:48;;;;;;;3.30;1.88;;;7.10;95.00;;;;;;6324655;28;20039;-75
2023/12/05 06:41:50;;;;;;;2.88;1.13;;;7.10;94.80;;;;;;6324568;28;20394;-77
2023/12/05 06:44:51;;;;;;;1.92;1.02;;;7.00;94.70;;;;;;6321486;28;20036;-75
2023/12/05 06:47:54;;;;;;;7.20;1.30;;;7.10;94.80;;;;;;6320796;28;20048;-76
2023/12/05 06:50:56;;;;;;;9.35;2.65;;;7.20;94.70;;;;;;6319880;28;20409;-76
2023/12/05 06:53:58;;;;;;;2.15;1.23;;;7.20;94.50;;;;;;6320642;28;20534;-76
2023/12/05 06:56:59;;;;;;;4.85;0.85;;;7.20;94.50;;;;;;6320130;28;20524;-76
2023/12/05 07:00:02;;;;;;;10.70;2.28;;;7.20;94.50;;;;;;6320255;28;20066;-75
2023/12/05 07:03:05;;;;;;;2.53;1.10;;;7.20;94.40;;;;;;6320599;28;20055;-76
2023/12/05 07:06:07;;;;;;;3.28;1.45;;;7.20;94.40;;;;;;6320693;28;20050;-76
2023/12/05 07:09:09;;;;;;;7.00;1.52;;;7.20;94.40;;;;;;6319550;28;20641;-76
2023/12/05 07:12:11;;;;;;;6.18;1.13;;;7.20;94.40;;;;;;6319794;28;20435;-76
2023/12/05 07:15:12;;;;;;;4.30;1.13;;;7.20;94.40;;;;;;6319802;28;20665;-77
2023/12/05 07:18:15;;;;;;;2.05;0.88;;;7.30;94.30;;;;;;6321305;28;20477;-76
2023/12/05 07:21:17;;;;;;;3.33;1.20;;;7.30;94.20;;;;;;6319730;28;20047;-76
2023/12/05 07:24:19;;;;;;;1.95;1.08;;;7.30;94.10;;;;;;6320078;28;20131;-76
2023/12/05 07:27:20;;;;;;;2.00;1.17;;;7.30;94.10;;;;;;6319588;28;20044;-76
2023/12/05 07:30:23;;;;;;;4.18;1.30;;;7.40;94.10;;;;;;6319162;28;20048;-76
2023/12/05 07:33:26;;;;;;;6.28;1.55;;;7.40;94.20;;;;;;6320203;28;20040;-76
2023/12/05 07:36:28;;;;;;;3.47;1.55;;;7.40;94.10;;;;;;6319717;28;20047;-77
2023/12/05 07:39:30;;;;;;;4.50;1.00;;;7.50;93.80;;;;;;6319775;28;20048;-77
2023/12/05 07:42:31;;;;;;;3.83;1.27;;;7.50;93.70;;;;;;6293708;22;20060;-81
2023/12/05 07:45:34;;;;;;;4.25;1.92;;;7.50;93.60;;;;;;6271207;28;20044;-79
2023/12/05 07:48:37;;;;;;;4.72;1.02;;;7.60;93.50;;;;;;6269574;28;20658;-79
2023/12/05 07:51:38;;;;;;;3.78;1.30;;;7.60;93.50;;;;;;6269496;28;20045;-79
2023/12/05 07:54:42;;;;;;;1.30;1.13;;;7.60;93.30;;;;;;6300210;28;20241;-79
2023/12/05 07:57:45;;;;;;;4.22;1.00;;;7.60;93.10;;;;;;6258548;28;20064;-79
2023/12/05 08:00:47;;;;;;;3.30;1.30;;;7.60;93.00;;;;;;6289788;28;20052;-80
2023/12/05 08:03:50;;;;;;;1.80;0.82;;;7.60;92.60;;;;;;6287232;28;20048;-80
2023/12/05 08:06:52;;;;;;;2.95;1.17;;;7.70;92.60;;;;;;6283213;28;20040;-84
2023/12/05 08:09:54;;;;;;;4.00;1.80;;;7.70;92.60;;;;;;6281671;28;20051;-80
2023/12/05 08:12:55;;;;;;;2.13;1.17;;;7.70;92.30;;;;;;6294561;28;20383;-81
2023/12/05 08:15:57;;;;;;;3.75;1.00;;;7.70;92.00;;;;;;6294214;28;20050;-80
2023/12/05 08:19:00;;;;;;;4.35;1.20;;;7.70;91.60;;;;;;6296361;28;20037;-82
2023/12/05 08:22:02;;;;;;;1.55;1.05;;;7.80;91.50;;;;;;6284614;28;20514;-80
2023/12/05 08:25:07;;;;;;;0.80;0.80;;;7.80;91.50;;;;;;6292628;28;20040;-82
2023/12/05 08:28:09;;;;;;;4.38;1.20;;;7.80;91.50;;;;;;6296087;28;20131;-80
2023/12/05 08:31:10;;;;;;;2.40;0.77;;;7.80;91.10;;;;;;6290636;28;20045;-78
2023/12/05 08:34:14;;;;;;;4.57;0.85;;;7.90;91.30;;;;;;6291210;28;20082;-79
2023/12/05 08:37:16;;;;;;;12.48;1.70;;;7.90;90.40;;;;;;6289150;28;20056;-82
2023/12/05 08:40:18;;;;;;;3.25;1.02;;;8.00;90.60;;;;;;6288623;28;20045;-80
2023/12/05 08:43:19;;;;;;;1.50;1.40;;;8.00;90.40;;;;;;6290803;28;20044;-81
2023/12/05 08:46:21;;;;;;;2.58;1.40;;;8.10;90.10;;;;;;6293193;28;20070;-81
2023/12/05 08:49:24;;;;;;;2.47;0.98;;;8.20;90.30;;;;;;6294078;28;20044;-79
2023/12/05 08:52:26;;;;;;;1.40;0.95;;;8.20;90.20;;;;;;6293618;28;20049;-81
2023/12/05 08:55:27;;;;;;;3.95;1.20;;;8.20;90.30;;;;;;6295776;28;20041;-81
2023/12/05 08:58:29;;;;;;;1.88;0.68;;;8.20;90.30;;;;;;6303862;28;20037;-80
2023/12/05 09:01:31;;;;;;;0.45;0.45;;;8.20;90.20;;;;;;6290566;28;20537;-81
2023/12/05 09:04:36;;;;;;;4.43;1.50;;;8.20;89.90;;;;;;6293362;28;20409;-82
2023/12/05 09:07:39;;;;;;;3.15;1.25;;;8.30;90.00;;;;;;6279815;28;20055;-82
2023/12/05 09:10:41;;;;;;;4.93;2.58;;;8.40;90.40;;;;;;6293775;28;20127;-83
2023/12/05 09:13:42;;;;;;;7.18;1.67;;;8.50;89.60;;;;;;6291358;28;20493;-81
2023/12/05 09:16:44;;;;;;;4.82;1.15;;;8.70;89.60;;;;;;6295542;28;20047;-81
2023/12/05 09:19:47;;;;;;;2.20;0.80;;;8.80;88.90;;;;;;6293310;28;20576;-80
2023/12/05 09:22:49;;;;;;;2.30;0.98;;;8.80;89.40;;;;;;6286908;28;20082;-80
2023/12/05 09:25:51;;;;;;;4.13;0.90;;;9.00;88.30;;;;;;6294230;28;20052;-81
2023/12/05 09:28:53;;;;;;;5.78;3.20;;;9.00;88.10;;;;;;6292970;28;20044;-82
2023/12/05 09:31:54;;;;;;;6.40;1.20;;;9.10;87.60;;;;;;6286384;28;20043;-80
2023/12/05 09:34:57;;;;;;;4.35;0.90;;;9.00;88.00;;;;;;6300016;28;20048;-81
2023/12/05 09:37:59;;;;;;;2.03;1.63;;;8.90;88.00;;;;;;6307883;28;20059;-81
2023/12/05 09:41:02;;;;;;;2.78;0.80;;;8.90;86.80;;;;;;6301943;28;20048;-81
2023/12/05 09:44:05;;;;;;;3.20;1.33;;;8.90;87.10;;;;;;6301354;28;20131;-81
2023/12/05 09:47:11;;;;;;;1.83;0.75;;;8.90;87.00;;;;;;6302974;28;20049;-82
2023/12/05 09:50:15;;;;;;;4.10;0.75;;;8.90;86.90;;;;;;6300485;28;20059;-82
2023/12/05 09:53:17;;;;;;;1.63;0.88;;;8.90;86.50;;;;;;6306625;28;20041;-81
2023/12/05 09:56:21;;;;;;;1.80;1.15;;;8.90;86.00;;;;;;6304283;28;20049;-81
2023/12/05 09:59:23;;;;;;;2.05;1.13;;;8.90;85.10;;;;;;6304399;28;20063;-82
2023/12/05 10:02:25;;;;;;;2.17;1.13;;;8.80;85.50;;;;;;6304684;28;20051;-80
2023/12/05 10:05:30;;;;;;;0.55;0.47;;;8.80;85.20;;;;;;6302937;28;20417;-81
2023/12/05 10:08:32;;;;;;;2.58;0.50;;;8.80;85.70;;;;;;6302229;28;20049;-82
2023/12/05 10:11:35;;;;;;;2.38;0.63;;;8.80;84.50;;;;;;6304265;28;20040;-81
2023/12/05 10:14:37;;;;;;;1.13;0.50;;;8.70;84.80;;;;;;6286550;28;20040;-80
2023/12/05 10:17:39;;;;;;;3.05;0.70;;;8.60;85.40;;;;;;6305124;28;20517;-80
2023/12/05 10:20:42;;;;;;;2.47;1.20;;;8.60;85.80;;;;;;6284450;28;20040;-79
2023/12/05 10:23:44;;;;;;;5.53;0.52;;;8.60;85.80;;;;;;6287099;28;20044;-80
2023/12/05 10:26:47;;;;;;;2.88;0.70;;;8.60;85.10;;;;;;6297791;28;20048;-78
2023/12/05 10:29:49;;;;;;;5.78;0.60;;;8.60;85.10;;;;;;6295620;28;20056;-80
2023/12/05 10:32:50;;;;;;;1.10;0.63;;;8.60;85.00;;;;;;6283298;28;22954;-81
2023/12/05 10:35:55;;;;;;;3.25;1.00;;;8.60;85.20;;;;;;6290002;28;20040;-80
2023/12/05 10:38:57;;;;;;;3.25;0.77;;;8.60;85.00;;;;;;6294022;28;20037;-83
2023/12/05 10:41:59;;;;;;;1.60;0.82;;;8.60;84.10;;;;;;6285239;28;21786;-81
2023/12/05 10:45:06;;;;;;;2.00;1.17;;;8.60;83.00;;;;;;6300250;28;20060;-81
2023/12/05 10:48:08;;;;;;;2.47;0.60;;;8.60;83.60;;;;;;6281527;28;20040;-79
2023/12/05 10:51:11;;;;;;;5.35;2.35;;;8.60;83.60;;;;;;6281932;28;20330;-81
2023/12/05 10:54:14;;;;;;;1.70;0.80;;;8.60;84.00;;;;;;6279337;28;20041;-79
2023/12/05 10:57:16;;;;;;;1.05;0.80;;;8.60;83.90;;;;;;6280411;28;20047;-80
2023/12/05 11:00:18;;;;;;;1.27;0.65;;;8.60;84.00;;;;;;6282325;28;20049;-80
2023/12/05 11:03:21;;;;;;;0.80;0.50;;;8.70;84.40;;;;;;6274962;28;20060;-79
2023/12/05 11:06:25;;;;;;;1.80;0.60;;;8.70;83.60;;;;;;6283048;28;20097;-78
2023/12/05 11:09:27;;;;;;;1.50;0.80;;;8.70;82.90;;;;;;6283755;28;20055;-79
2023/12/05 11:12:29;;;;;;;4.38;1.60;;;8.80;83.50;;;;;;6284094;28;20048;-79
2023/12/05 11:15:36;;;;;;;0.68;0.63;;;8.80;83.00;;;;;;6286359;28;20051;-80
2023/12/05 11:18:40;;;;;;;3.37;1.77;;;8.90;83.10;;;;;;6286091;28;20045;-81
2023/12/05 11:21:53;;;;;;;4.32;1.90;;;8.90;83.30;;;;;;6286060;28;20055;-79
2023/12/05 11:25:14;;;;;;;2.05;1.88;;;9.00;84.00;;;;;;6272107;28;20059;-79
2023/12/05 11:28:27;;;;;;;2.25;0.98;;;9.00;83.10;;;;;;6278120;28;20051;-81
2023/12/05 11:31:39;;;;;;;0.85;0.57;;;9.00;83.60;;;;;;6276345;28;20056;-80
2023/12/05 11:34:59;;;;;;;1.15;0.60;;;9.00;82.90;;;;;;6285144;28;20057;-81
2023/12/05 11:38:10;;;;;;;1.67;0.75;;;9.00;83.00;;;;;;6286430;28;20055;-81
2023/12/05 11:41:13;;;;;;;2.50;0.30;;;9.00;82.70;;;;;;6289830;28;20067;-81
2023/12/05 11:44:19;;;;;;;0.70;0.38;;;9.00;83.40;;;;;;6287426;28;20139;-82
2023/12/05 11:47:24;;;;;;;1.70;1.17;;;9.00;82.00;;;;;;6287988;28;20049;-81
2023/12/05 11:50:26;;;;;;;0.77;0.40;;;8.90;81.60;;;;;;6296398;28;20414;-82
2023/12/05 11:53:30;;;;;;;0.70;0.30;;;8.90;83.00;;;;;;6300328;28;20047;-84
2023/12/05 11:56:31;;;;;;;1.10;0.60;;;8.90;82.60;;;;;;6298122;28;20071;-82
2023/12/05 11:59:39;;;;;;;1.85;0.60;;;9.00;82.70;;;;;;6296510;28;20041;-82
2023/12/05 12:02:43;;;;;;;4.65;0.60;;;9.10;83.00;;;;;;6291874;28;20047;-83
2023/12/05 12:05:48;;;;;;;1.10;0.70;;;9.10;82.30;;;;;;6303366;28;20047;-84
2023/12/05 12:08:53;;;;;;;1.00;0.68;;;9.30;82.90;;;;;;6296403;28;20397;-82
2023/12/05 12:11:57;;;;;;;4.13;1.10;;;9.40;82.40;;;;;;6301471;28;20040;-82
2023/12/05 12:14:58;;;;;;;2.05;0.85;;;9.60;82.40;;;;;;6302794;28;20052;-83
2023/12/05 12:18:00;;;;;;;3.53;0.85;;;9.50;81.70;;;;;;6297945;28;20056;-82
2023/12/05 12:21:02;;;;;;;4.45;0.90;;;9.50;80.00;;;;;;6290977;28;20052;-83
2023/12/05 12:24:06;;;;;;;3.10;1.35;;;9.40;81.90;;;;;;6294281;28;20052;-82
2023/12/05 12:27:08;;;;;;;4.05;0.93;;;9.40;80.50;;;;;;6288159;28;20047;-82
2023/12/05 12:30:14;;;;;;;3.08;1.25;;;9.20;80.40;;;;;;6289752;28;20060;-81
2023/12/05 12:33:16;;;;;;;2.70;0.98;;;9.10;80.50;;;;;;6293412;28;20501;-79
2023/12/05 12:36:18;;;;;;;4.50;0.93;;;9.10;82.10;;;;;;6296804;28;20501;-83
2023/12/05 12:39:23;;;;;;;2.28;1.13;;;9.00;82.50;;;;;;6295109;28;20048;-82
2023/12/05 12:42:25;;;;;;;5.85;1.30;;;8.90;83.40;;;;;;6306334;28;20087;-82
2023/12/05 12:52:21;;;;;;;6.40;2.22;;;15.00;84.60;;;;;;6297937;27;20350;-61
2023/12/05 12:55:23;;;;;;;10.70;4.47;;;16.40;77.90;;;;;;6270318;28;20052;-59
2023/12/05 12:58:33;;;;;;;6.88;1.98;;;17.20;71.70;;;;;;6258632;28;20053;-64
2023/12/05 13:01:38;;;;;;;6.80;2.03;;;18.90;59.00;;;;;;6286041;28;20127;-64
2023/12/05 13:04:39;;;;;;;9.18;2.20;;;19.10;55.80;;;;;;6287862;28;20059;-65
2023/12/05 13:07:42;;;;;;;10.90;1.80;;;19.20;55.20;;;;;;6285594;28;21065;-64
2023/12/05 13:10:45;;;;;;;6.65;3.15;;;19.30;55.60;;;;;;6285522;28;20048;-65
2023/12/05 13:20:07;;;;;;;4.25;1.52;;;;;;;;;;6305328;27;20344;-67
2023/12/05 13:24:51;;;;;;;12.27;7.72;;;;;;;;;;6302019;27;20391;-66
2023/12/05 13:29:55;;;;;;;18.90;17.08;;;;;;;;;;6327160;27;20349;-65
2023/12/05 13:32:56;;;;;;;26.85;24.17;;;;;;;;;;6333763;27;20059;-62
2023/12/05 13:35:57;;;;;;;24.80;22.70;;;;;;;;;;6320076;27;20044;-64
2023/12/05 13:38:58;;;;;;;60.60;55.50;;;;;;;;;;6317761;27;62078;-71
2023/12/05 13:43:14;;;;;;;109.28;99.93;;;;;;;19.64;42.48;99181.44;6306630;27;20365;-70
2023/12/05 13:46:16;;;;;;;49.47;45.42;;;;;;;19.60;42.84;99188.06;6238517;28;20048;-67
2023/12/05 13:49:18;;;;;;;52.63;47.90;;;;;;;19.60;42.72;99185.38;6240407;28;20741;-69
2023/12/05 13:52:19;;;;;;;54.35;49.05;;;;;;;19.59;42.60;99189.91;6241374;28;20046;-65
2023/12/05 13:55:21;;;;;;;53.88;49.42;;;;;;;19.59;42.52;99192.59;6236793;28;20049;-69
2023/12/05 13:58:23;;;;;;;40.25;36.75;;;;;;;19.74;41.84;99195.06;6236369;28;20056;-73
2023/12/05 14:04:05;;;;;;;42.90;39.05;;;;;;;;;;6231360;27;20374;-64
2023/12/05 14:07:06;;;;;;;40.95;37.15;;;;;;;;;;6247741;28;20045;-63
2023/12/05 14:10:08;;;;;;;39.13;35.70;;;;;;;;;;6252496;28;20045;-63
2023/12/05 14:13:09;;;;;;;41.58;38.08;;;;;;;;;;6245438;28;20406;-63
2023/12/05 14:16:10;;;;;;;42.58;38.55;;;;;;;;;;6251376;28;20053;-64
2023/12/05 14:19:13;;;;;;;36.70;33.10;;;;;;;;;;6248600;28;20930;-64
2023/12/05 14:22:48;;;;;;;30.30;27.73;;;;;;;;;;2509177;28;21105;-65
2023/12/05 14:24:02;;;;;;;35.58;32.42;;;;;;;;;;2516970;28;20073;-64
2023/12/05 14:25:16;;;;;;;32.00;29.30;;;;;;;;;;2516536;28;20069;-64
2023/12/05 14:26:29;;;;;;;32.83;29.83;;;;;;;;;;2518318;28;20058;-64
2023/12/05 14:27:44;;;;;;;34.67;31.65;;;;;;;;;;2516211;28;20038;-64
2023/12/05 14:28:57;;;;;;;34.80;31.90;;;;;;;;;;2517975;28;20054;-67
2023/12/05 14:30:11;;;;;;;36.90;33.67;;;;;;;;;;2518331;28;20049;-66
2023/12/05 14:31:25;;;;;;;35.25;31.50;;;;;;;;;;2516481;28;20050;-60
2023/12/05 14:32:39;;;;;;;33.33;30.27;;;;;;;;;;2516536;28;20038;-60
2023/12/05 14:33:53;;;;;;;36.55;32.80;;;;;;;;;;2513030;28;20068;-60
2023/12/05 14:35:07;;;;;;;37.75;34.08;;;;;;;;;;2515779;28;20050;-68
2023/12/05 14:36:20;;;;;;;31.77;28.60;;;;;;;;;;2519779;28;20046;-62
2023/12/05 14:37:35;;;;;;;32.80;29.65;;;;;;;;;;2516693;28;20143;-62
2023/12/05 14:38:49;;;;;;;28.65;25.90;;;;;;;;;;2517508;28;20685;-62
2023/12/05 14:40:06;;;;;;;33.40;30.08;;;;;;;;;;2516361;28;20054;-60
2023/12/05 14:41:19;;;;;;;35.47;31.33;;;;;;;;;;2515711;28;20054;-61
2023/12/05 14:42:35;;;;;;;40.88;28.55;;;;;;;;;;2517489;28;20053;-65
2023/12/05 14:43:48;;;;;;;30.10;27.17;;;;;;;;;;2520533;28;20141;-64
2023/12/05 14:45:03;;;;;;;28.75;26.05;;;;;;;;;;2521358;28;20061;-77
2023/12/05 14:46:16;;;;;;;28.45;25.80;;;;;;;;;;2526473;28;20057;-61
2023/12/05 14:47:31;;;;;;;29.45;26.65;;;;;;;;;;2526080;28;20055;-63
2023/12/05 14:48:44;;;;;;;30.58;27.58;;;;;;;;;;2527257;28;20598;-74
2023/12/05 14:49:58;;;;;;;31.45;28.50;;;;;;;;;;2526251;28;20053;-62
2023/12/05 14:51:11;;;;;;;28.65;26.10;;;;;;;;;;2526732;28;20060;-61
2023/12/05 14:52:26;;;;;;;28.60;25.92;;;;;;;;;;2526048;28;20045;-61
2023/12/05 14:53:39;;;;;;;25.05;22.45;;;;;;;;;;2527713;28;20403;-61
2023/12/05 14:54:55;;;;;;;25.42;23.15;;;;;;;;;;2526685;28;20049;-60
2023/12/05 14:56:08;;;;;;;25.33;22.80;;;;;;;;;;2526299;28;20050;-62
2023/12/05 14:57:22;;;;;;;24.50;22.08;;;;;;;;;;2526956;28;20125;-61
2023/12/05 14:58:36;;;;;;;26.00;23.48;;;;;;;;;;2526431;28;20053;-62
2023/12/05 14:59:50;;;;;;;25.60;23.02;;;;;;;;;;2527838;28;20384;-62
2023/12/05 15:01:04;;;;;;;25.05;22.73;;;;;;;;;;2528103;28;20051;-61
2023/12/05 15:02:18;;;;;;;26.00;23.48;;;;;;;;;;2526128;28;20045;-61
2023/12/05 15:03:31;;;;;;;24.88;22.38;;;;;;;;;;2528004;28;20124;-63
2023/12/05 15:04:46;;;;;;;24.95;22.35;;;;;;;;;;2526728;28;20044;-61
2023/12/05 15:05:59;;;;;;;30.25;23.65;;;;;;;;;;2528912;28;20057;-61
2023/12/05 15:07:13;;;;;;;;;;;;;;;;;;2528364;28;20041;-67
2023/12/05 15:08:27;;;;;;;12.50;11.40;;;;;;;;;;2527587;28;19969;-71
2023/12/05 15:09:41;;;;;;;23.98;21.63;;;;;;;;;;2528485;28;20401;-68
2023/12/05 15:10:56;;;;;;;24.42;21.23;;;;;;;;;;2524933;28;20048;-62
2023/12/05 15:12:10;;;;;;;22.23;19.95;;;;;;;;;;2532787;28;20151;-62
2023/12/05 15:13:23;;;;;;;22.60;20.45;;;;;;;;;;2537056;28;20049;-62
2023/12/05 15:14:38;;;;;;;22.00;19.92;;;;;;;;;;2536705;28;20082;-62
2023/12/05 15:15:51;;;;;;;21.60;19.50;;;;;;;;;;2537456;28;20053;-63